sensor_id;sensor_type;location;lat;lon;timestamp;temperature;humidity
18880;DHT22;9572;52.378;13.404;2023-06-22T00:00:53;19.50;99.90
18880;DHT22;9572;52.378;13.404;2023-06-22T00:03:22;19.50;99.90
18880;DHT22;9572;52.378;13.404;2023-06-22T00:05:50;19.50;99.90
18880;DHT22;9572;52.378;13.404;2023-06-22T00:08:18;19.50;99.90
18880;DHT22;9572;52.378;13.404;2023-06-22T00:10:45;19.40;99.90
18880;DHT22;9572;52.378;13.404;2023-06-22T00:13:13;19.50;99.90
18880;DHT22;9572;52.378;13.404;2023-06-22T00:15:41;19.40;99.90
18880;DHT22;9572;52.378;13.404;2023-06-22T00:18:10;19.40;99.90
18880;DHT22;9572;52.378;13.404;2023-06-22T00:20:39;19.40;99.90
18880;DHT22;9572;52.378;13.404;2023-06-22T00:23:07;19.40;99.90
18880;DHT22;9572;52.378;13.404;2023-06-22T00:25:35;19.40;99.90
18880;DHT22;9572;52.378;13.404;2023-06-22T00:28:02;19.40;99.90
18880;DHT22;9572;52.378;13.404;2023-06-22T00:30:30;19.40;99.90
18880;DHT22;9572;52.378;13.404;2023-06-22T00:32:58;19.30;99.90
18880;DHT22;9572;52.378;13.404;2023-06-22T00:35:27;19.30;99.90
18880;DHT22;9572;52.378;13.404;2023-06-22T00:37:55;19.30;99.90
18880;DHT22;9572;52.378;13.404;2023-06-22T00:40:26;19.30;99.90
18880;DHT22;9572;52.378;13.404;2023-06-22T00:42:54;19.40;99.90
18880;DHT22;9572;52.378;13.404;2023-06-22T00:45:21;19.40;99.90
18880;DHT22;9572;52.378;13.404;2023-06-22T00:47:49;19.40;99.90
18880;DHT22;9572;52.378;13.404;2023-06-22T00:50:19;19.40;99.90
18880;DHT22;9572;52.378;13.404;2023-06-22T00:52:52;19.40;99.90
18880;DHT22;9572;52.378;13.404;2023-06-22T00:55:19;19.40;99.90
18880;DHT22;9572;52.378;13.404;2023-06-22T00:57:47;19.50;99.90
18880;DHT22;9572;52.378;13.404;2023-06-22T01:00:15;19.50;99.90
18880;DHT22;9572;52.378;13.404;2023-06-22T01:02:45;19.50;99.90
18880;DHT22;9572;52.378;13.404;2023-06-22T01:05:13;19.60;99.90
18880;DHT22;9572;52.378;13.404;2023-06-22T01:07:44;19.70;99.90
18880;DHT22;9572;52.378;13.404;2023-06-22T01:10:18;19.70;99.90
18880;DHT22;9572;52.378;13.404;2023-06-22T01:12:52;19.70;99.90
18880;DHT22;9572;52.378;13.404;2023-06-22T01:15:25;19.70;99.90
18880;DHT22;9572;52.378;13.404;2023-06-22T01:17:55;19.80;99.90
18880;DHT22;9572;52.378;13.404;2023-06-22T01:20:23;19.80;99.90
18880;DHT22;9572;52.378;13.404;2023-06-22T01:23:02;19.80;99.90
18880;DHT22;9572;52.378;13.404;2023-06-22T01:25:45;19.80;99.90
18880;DHT22;9572;52.378;13.404;2023-06-22T01:28:24;19.80;99.90
18880;DHT22;9572;52.378;13.404;2023-06-22T01:30:55;19.90;99.90
18880;DHT22;9572;52.378;13.404;2023-06-22T01:33:33;19.90;99.90
18880;DHT22;9572;52.378;13.404;2023-06-22T01:36:01;19.90;99.90
18880;DHT22;9572;52.378;13.404;2023-06-22T01:38:29;19.90;99.90
18880;DHT22;9572;52.378;13.404;2023-06-22T01:40:57;19.90;99.90
18880;DHT22;9572;52.378;13.404;2023-06-22T01:43:26;19.80;99.90
18880;DHT22;9572;52.378;13.404;2023-06-22T01:45:56;19.80;99.90
18880;DHT22;9572;52.378;13.404;2023-06-22T01:48:23;19.80;99.90
18880;DHT22;9572;52.378;13.404;2023-06-22T01:50:51;19.80;99.90
18880;DHT22;9572;52.378;13.404;2023-06-22T01:53:20;19.80;99.90
18880;DHT22;9572;52.378;13.404;2023-06-22T01:55:47;19.80;99.90
18880;DHT22;9572;52.378;13.404;2023-06-22T01:58:14;19.80;99.90
18880;DHT22;9572;52.378;13.404;2023-06-22T02:00:50;19.80;99.90
18880;DHT22;9572;52.378;13.404;2023-06-22T02:03:23;19.70;99.90
18880;DHT22;9572;52.378;13.404;2023-06-22T02:05:56;19.70;99.90
18880;DHT22;9572;52.378;13.404;2023-06-22T02:08:29;19.70;99.90
18880;DHT22;9572;52.378;13.404;2023-06-22T02:10:57;19.70;99.90
18880;DHT22;9572;52.378;13.404;2023-06-22T02:13:27;19.70;99.90
18880;DHT22;9572;52.378;13.404;2023-06-22T02:15:54;19.70;99.90
18880;DHT22;9572;52.378;13.404;2023-06-22T02:18:22;19.60;99.90
18880;DHT22;9572;52.378;13.404;2023-06-22T02:20:51;19.60;99.90
18880;DHT22;9572;52.378;13.404;2023-06-22T02:23:18;19.60;99.90
18880;DHT22;9572;52.378;13.404;2023-06-22T02:25:45;19.60;99.90
18880;DHT22;9572;52.378;13.404;2023-06-22T02:28:12;19.50;99.90
18880;DHT22;9572;52.378;13.404;2023-06-22T02:30:39;19.50;99.90
18880;DHT22;9572;52.378;13.404;2023-06-22T02:33:06;19.50;99.90
18880;DHT22;9572;52.378;13.404;2023-06-22T02:35:34;19.50;99.90
18880;DHT22;9572;52.378;13.404;2023-06-22T02:38:03;19.50;99.90
18880;DHT22;9572;52.378;13.404;2023-06-22T02:40:31;19.50;99.90
18880;DHT22;9572;52.378;13.404;2023-06-22T02:42:58;19.50;99.90
18880;DHT22;9572;52.378;13.404;2023-06-22T02:45:27;19.60;99.90
18880;DHT22;9572;52.378;13.404;2023-06-22T02:47:55;19.60;99.90
18880;DHT22;9572;52.378;13.404;2023-06-22T02:50:22;19.60;99.90
18880;DHT22;9572;52.378;13.404;2023-06-22T02:52:50;19.60;99.90
18880;DHT22;9572;52.378;13.404;2023-06-22T02:55:18;19.70;99.90
18880;DHT22;9572;52.378;13.404;2023-06-22T02:57:45;19.60;99.90
18880;DHT22;9572;52.378;13.404;2023-06-22T03:00:14;19.70;99.90
18880;DHT22;9572;52.378;13.404;2023-06-22T03:02:43;19.70;99.90
18880;DHT22;9572;52.378;13.404;2023-06-22T03:05:10;19.70;99.90
18880;DHT22;9572;52.378;13.404;2023-06-22T03:07:39;19.70;99.90
18880;DHT22;9572;52.378;13.404;2023-06-22T03:10:09;19.70;99.90
18880;DHT22;9572;52.378;13.404;2023-06-22T03:12:36;19.70;99.90
18880;DHT22;9572;52.378;13.404;2023-06-22T03:15:05;19.60;99.90
18880;DHT22;9572;52.378;13.404;2023-06-22T03:17:33;19.60;99.90
18880;DHT22;9572;52.378;13.404;2023-06-22T03:20:00;19.50;99.90
18880;DHT22;9572;52.378;13.404;2023-06-22T03:22:29;19.60;99.90
18880;DHT22;9572;52.378;13.404;2023-06-22T03:24:55;19.50;99.90
18880;DHT22;9572;52.378;13.404;2023-06-22T03:27:24;19.50;99.90
18880;DHT22;9572;52.378;13.404;2023-06-22T03:29:51;19.50;99.90
18880;DHT22;9572;52.378;13.404;2023-06-22T03:32:17;19.50;99.90
18880;DHT22;9572;52.378;13.404;2023-06-22T03:34:46;19.50;99.90
18880;DHT22;9572;52.378;13.404;2023-06-22T03:37:13;19.50;99.90
18880;DHT22;9572;52.378;13.404;2023-06-22T03:39:41;19.50;99.90
18880;DHT22;9572;52.378;13.404;2023-06-22T03:42:08;19.50;99.90
18880;DHT22;9572;52.378;13.404;2023-06-22T03:44:46;19.50;99.90
18880;DHT22;9572;52.378;13.404;2023-06-22T03:47:13;19.50;99.90
18880;DHT22;9572;52.378;13.404;2023-06-22T03:49:40;19.50;99.90
18880;DHT22;9572;52.378;13.404;2023-06-22T03:52:07;19.50;99.90
18880;DHT22;9572;52.378;13.404;2023-06-22T03:54:34;19.50;99.90
18880;DHT22;9572;52.378;13.404;2023-06-22T03:57:02;19.60;99.90
18880;DHT22;9572;52.378;13.404;2023-06-22T03:59:29;19.60;99.90
18880;DHT22;9572;52.378;13.404;2023-06-22T04:01:57;19.60;99.90
18880;DHT22;9572;52.378;13.404;2023-06-22T04:04:25;19.70;99.90
18880;DHT22;9572;52.378;13.404;2023-06-22T04:06:52;19.70;99.90
18880;DHT22;9572;52.378;13.404;2023-06-22T04:09:18;19.70;99.90
18880;DHT22;9572;52.378;13.404;2023-06-22T04:11:47;19.70;99.90
18880;DHT22;9572;52.378;13.404;2023-06-22T04:14:14;19.70;99.90
18880;DHT22;9572;52.378;13.404;2023-06-22T04:16:40;19.80;99.90
18880;DHT22;9572;52.378;13.404;2023-06-22T04:19:09;19.80;99.90
18880;DHT22;9572;52.378;13.404;2023-06-22T04:21:41;19.80;99.90
18880;DHT22;9572;52.378;13.404;2023-06-22T04:24:08;19.90;99.90
18880;DHT22;9572;52.378;13.404;2023-06-22T04:26:35;19.90;99.90
18880;DHT22;9572;52.378;13.404;2023-06-22T04:29:03;19.90;99.90
18880;DHT22;9572;52.378;13.404;2023-06-22T04:31:30;19.90;99.90
18880;DHT22;9572;52.378;13.404;2023-06-22T04:34:02;20.00;99.90
18880;DHT22;9572;52.378;13.404;2023-06-22T04:36:37;20.00;99.90
18880;DHT22;9572;52.378;13.404;2023-06-22T04:39:05;20.10;99.90
18880;DHT22;9572;52.378;13.404;2023-06-22T04:41:35;20.20;99.90
18880;DHT22;9572;52.378;13.404;2023-06-22T04:44:09;20.30;99.90
18880;DHT22;9572;52.378;13.404;2023-06-22T04:46:37;20.40;99.90
18880;DHT22;9572;52.378;13.404;2023-06-22T04:49:06;20.40;99.90
18880;DHT22;9572;52.378;13.404;2023-06-22T04:51:39;20.50;99.90
18880;DHT22;9572;52.378;13.404;2023-06-22T04:54:06;20.60;99.90
18880;DHT22;9572;52.378;13.404;2023-06-22T04:56:33;20.70;99.90
18880;DHT22;9572;52.378;13.404;2023-06-22T04:59:01;20.70;99.90
18880;DHT22;9572;52.378;13.404;2023-06-22T05:01:28;20.90;99.90
18880;DHT22;9572;52.378;13.404;2023-06-22T05:03:57;21.00;99.90
18880;DHT22;9572;52.378;13.404;2023-06-22T05:06:27;21.10;99.90
18880;DHT22;9572;52.378;13.404;2023-06-22T05:08:56;21.10;99.90
18880;DHT22;9572;52.378;13.404;2023-06-22T05:11:24;21.20;99.90
18880;DHT22;9572;52.378;13.404;2023-06-22T05:13:51;21.30;99.90
18880;DHT22;9572;52.378;13.404;2023-06-22T05:16:19;21.30;99.90
18880;DHT22;9572;52.378;13.404;2023-06-22T05:18:50;21.30;99.90
18880;DHT22;9572;52.378;13.404;2023-06-22T05:21:17;21.40;99.90
18880;DHT22;9572;52.378;13.404;2023-06-22T05:23:45;21.50;99.90
18880;DHT22;9572;52.378;13.404;2023-06-22T05:26:13;21.70;99.90
18880;DHT22;9572;52.378;13.404;2023-06-22T05:28:41;21.90;99.90
18880;DHT22;9572;52.378;13.404;2023-06-22T05:31:11;22.00;99.90
18880;DHT22;9572;52.378;13.404;2023-06-22T05:33:39;22.10;99.90
18880;DHT22;9572;52.378;13.404;2023-06-22T05:36:06;22.10;99.90
18880;DHT22;9572;52.378;13.404;2023-06-22T05:38:33;22.10;99.90
18880;DHT22;9572;52.378;13.404;2023-06-22T05:41:00;22.20;99.90
18880;DHT22;9572;52.378;13.404;2023-06-22T05:43:28;22.10;99.90
18880;DHT22;9572;52.378;13.404;2023-06-22T05:45:55;22.20;99.90
18880;DHT22;9572;52.378;13.404;2023-06-22T05:48:22;22.20;99.90
18880;DHT22;9572;52.378;13.404;2023-06-22T05:50:50;22.20;99.90
18880;DHT22;9572;52.378;13.404;2023-06-22T05:53:16;22.10;99.90
18880;DHT22;9572;52.378;13.404;2023-06-22T05:55:43;22.10;99.90
18880;DHT22;9572;52.378;13.404;2023-06-22T05:58:10;22.00;99.90
18880;DHT22;9572;52.378;13.404;2023-06-22T06:00:40;22.00;99.90
18880;DHT22;9572;52.378;13.404;2023-06-22T06:03:09;22.00;99.90
18880;DHT22;9572;52.378;13.404;2023-06-22T06:05:36;22.00;99.90
18880;DHT22;9572;52.378;13.404;2023-06-22T06:08:05;22.00;99.90
18880;DHT22;9572;52.378;13.404;2023-06-22T06:10:33;22.10;99.90
18880;DHT22;9572;52.378;13.404;2023-06-22T06:13:00;22.30;99.90
18880;DHT22;9572;52.378;13.404;2023-06-22T06:15:29;22.30;99.90
18880;DHT22;9572;52.378;13.404;2023-06-22T06:17:58;22.40;99.90
18880;DHT22;9572;52.378;13.404;2023-06-22T06:20:26;22.50;99.90
18880;DHT22;9572;52.378;13.404;2023-06-22T06:22:54;22.60;99.90
18880;DHT22;9572;52.378;13.404;2023-06-22T06:25:22;22.80;99.90
18880;DHT22;9572;52.378;13.404;2023-06-22T06:27:51;23.10;99.90
18880;DHT22;9572;52.378;13.404;2023-06-22T06:30:20;23.70;99.90
18880;DHT22;9572;52.378;13.404;2023-06-22T06:32:47;24.30;99.90
18880;DHT22;9572;52.378;13.404;2023-06-22T06:35:16;24.40;99.90
18880;DHT22;9572;52.378;13.404;2023-06-22T06:37:45;24.40;99.90
18880;DHT22;9572;52.378;13.404;2023-06-22T06:40:13;24.40;99.90
18880;DHT22;9572;52.378;13.404;2023-06-22T06:42:41;24.40;99.90
18880;DHT22;9572;52.378;13.404;2023-06-22T06:45:11;24.40;99.90
18880;DHT22;9572;52.378;13.404;2023-06-22T06:47:38;24.50;99.90
18880;DHT22;9572;52.378;13.404;2023-06-22T06:50:07;24.80;99.90
18880;DHT22;9572;52.378;13.404;2023-06-22T06:52:35;25.10;99.90
18880;DHT22;9572;52.378;13.404;2023-06-22T06:55:03;25.40;99.90
18880;DHT22;9572;52.378;13.404;2023-06-22T06:57:33;25.60;99.90
18880;DHT22;9572;52.378;13.404;2023-06-22T07:00:03;25.80;99.90
18880;DHT22;9572;52.378;13.404;2023-06-22T07:02:34;25.90;99.90
18880;DHT22;9572;52.378;13.404;2023-06-22T07:05:02;26.10;99.90
18880;DHT22;9572;52.378;13.404;2023-06-22T07:07:29;26.20;99.90
18880;DHT22;9572;52.378;13.404;2023-06-22T07:09:58;26.40;99.90
18880;DHT22;9572;52.378;13.404;2023-06-22T07:12:25;26.50;99.90
18880;DHT22;9572;52.378;13.404;2023-06-22T07:14:52;26.40;99.90
18880;DHT22;9572;52.378;13.404;2023-06-22T07:17:19;26.60;99.90
18880;DHT22;9572;52.378;13.404;2023-06-22T07:19:46;26.90;99.90
18880;DHT22;9572;52.378;13.404;2023-06-22T07:22:13;27.20;99.90
18880;DHT22;9572;52.378;13.404;2023-06-22T07:24:40;27.40;99.90
18880;DHT22;9572;52.378;13.404;2023-06-22T07:27:08;27.40;99.90
18880;DHT22;9572;52.378;13.404;2023-06-22T07:29:36;27.30;99.90
18880;DHT22;9572;52.378;13.404;2023-06-22T07:32:06;27.00;99.90
18880;DHT22;9572;52.378;13.404;2023-06-22T07:34:33;26.70;99.90
18880;DHT22;9572;52.378;13.404;2023-06-22T07:37:00;26.50;99.90
18880;DHT22;9572;52.378;13.404;2023-06-22T07:39:28;26.30;99.90
18880;DHT22;9572;52.378;13.404;2023-06-22T07:41:55;26.20;99.90
18880;DHT22;9572;52.378;13.404;2023-06-22T07:44:23;26.10;99.90
18880;DHT22;9572;52.378;13.404;2023-06-22T07:46:50;26.00;99.90
18880;DHT22;9572;52.378;13.404;2023-06-22T07:49:17;25.90;99.90
18880;DHT22;9572;52.378;13.404;2023-06-22T07:51:44;25.90;99.90
18880;DHT22;9572;52.378;13.404;2023-06-22T07:54:11;25.90;99.90
18880;DHT22;9572;52.378;13.404;2023-06-22T07:56:38;25.90;99.90
18880;DHT22;9572;52.378;13.404;2023-06-22T07:59:05;25.90;99.90
18880;DHT22;9572;52.378;13.404;2023-06-22T08:01:33;25.90;99.90
18880;DHT22;9572;52.378;13.404;2023-06-22T08:04:00;26.00;99.90
18880;DHT22;9572;52.378;13.404;2023-06-22T08:06:30;26.00;99.90
18880;DHT22;9572;52.378;13.404;2023-06-22T08:08:57;26.00;99.90
18880;DHT22;9572;52.378;13.404;2023-06-22T08:11:24;26.00;99.90
18880;DHT22;9572;52.378;13.404;2023-06-22T08:13:51;26.00;99.90
18880;DHT22;9572;52.378;13.404;2023-06-22T08:16:21;26.00;99.90
18880;DHT22;9572;52.378;13.404;2023-06-22T08:18:49;26.00;99.90
18880;DHT22;9572;52.378;13.404;2023-06-22T08:21:16;26.00;99.90
18880;DHT22;9572;52.378;13.404;2023-06-22T08:23:43;25.90;99.90
18880;DHT22;9572;52.378;13.404;2023-06-22T08:26:10;26.00;99.90
18880;DHT22;9572;52.378;13.404;2023-06-22T08:28:37;26.00;99.90
18880;DHT22;9572;52.378;13.404;2023-06-22T08:31:04;26.00;99.90
18880;DHT22;9572;52.378;13.404;2023-06-22T08:33:31;26.10;99.90
18880;DHT22;9572;52.378;13.404;2023-06-22T08:35:59;26.10;99.90
18880;DHT22;9572;52.378;13.404;2023-06-22T08:38:26;26.20;99.90
18880;DHT22;9572;52.378;13.404;2023-06-22T08:40:53;26.30;99.90
18880;DHT22;9572;52.378;13.404;2023-06-22T08:43:20;26.40;99.90
18880;DHT22;9572;52.378;13.404;2023-06-22T08:45:47;26.40;99.90
18880;DHT22;9572;52.378;13.404;2023-06-22T08:48:14;26.50;99.90
18880;DHT22;9572;52.378;13.404;2023-06-22T08:50:41;26.40;99.90
18880;DHT22;9572;52.378;13.404;2023-06-22T08:53:10;26.50;99.90
18880;DHT22;9572;52.378;13.404;2023-06-22T08:55:37;26.70;99.90
18880;DHT22;9572;52.378;13.404;2023-06-22T08:58:04;26.90;99.90
18880;DHT22;9572;52.378;13.404;2023-06-22T09:00:32;27.00;99.90
18880;DHT22;9572;52.378;13.404;2023-06-22T09:03:00;27.10;99.90
18880;DHT22;9572;52.378;13.404;2023-06-22T09:05:27;27.30;99.90
18880;DHT22;9572;52.378;13.404;2023-06-22T09:07:55;27.40;99.90
18880;DHT22;9572;52.378;13.404;2023-06-22T09:10:25;27.50;99.90
18880;DHT22;9572;52.378;13.404;2023-06-22T09:12:52;27.50;99.90
18880;DHT22;9572;52.378;13.404;2023-06-22T09:15:19;27.30;99.90
18880;DHT22;9572;52.378;13.404;2023-06-22T09:17:47;27.20;99.90
18880;DHT22;9572;52.378;13.404;2023-06-22T09:20:14;27.30;99.90
18880;DHT22;9572;52.378;13.404;2023-06-22T09:22:41;27.20;99.90
18880;DHT22;9572;52.378;13.404;2023-06-22T09:25:08;27.20;99.90
18880;DHT22;9572;52.378;13.404;2023-06-22T09:27:37;27.30;99.90
18880;DHT22;9572;52.378;13.404;2023-06-22T09:30:05;27.30;99.90
18880;DHT22;9572;52.378;13.404;2023-06-22T09:32:33;27.40;99.90
18880;DHT22;9572;52.378;13.404;2023-06-22T09:35:03;27.40;99.90
18880;DHT22;9572;52.378;13.404;2023-06-22T09:37:32;27.30;99.90
18880;DHT22;9572;52.378;13.404;2023-06-22T09:40:00;27.30;99.90
18880;DHT22;9572;52.378;13.404;2023-06-22T09:42:26;27.20;99.90
18880;DHT22;9572;52.378;13.404;2023-06-22T09:44:55;27.20;99.90
18880;DHT22;9572;52.378;13.404;2023-06-22T09:47:22;27.20;99.90
18880;DHT22;9572;52.378;13.404;2023-06-22T09:49:48;27.20;99.90
18880;DHT22;9572;52.378;13.404;2023-06-22T09:52:16;27.20;99.90
18880;DHT22;9572;52.378;13.404;2023-06-22T09:54:43;27.30;99.90
18880;DHT22;9572;52.378;13.404;2023-06-22T09:57:10;27.30;99.90
18880;DHT22;9572;52.378;13.404;2023-06-22T09:59:39;27.50;99.90
18880;DHT22;9572;52.378;13.404;2023-06-22T10:02:09;27.50;99.90
18880;DHT22;9572;52.378;13.404;2023-06-22T10:04:36;27.60;99.90
18880;DHT22;9572;52.378;13.404;2023-06-22T10:07:03;27.70;99.90
18880;DHT22;9572;52.378;13.404;2023-06-22T10:09:30;27.70;99.90
18880;DHT22;9572;52.378;13.404;2023-06-22T10:11:57;27.70;99.90
18880;DHT22;9572;52.378;13.404;2023-06-22T10:14:24;27.60;99.90
18880;DHT22;9572;52.378;13.404;2023-06-22T10:16:52;27.50;99.90
18880;DHT22;9572;52.378;13.404;2023-06-22T10:19:21;27.60;99.90
18880;DHT22;9572;52.378;13.404;2023-06-22T10:21:48;27.50;99.90
18880;DHT22;9572;52.378;13.404;2023-06-22T10:24:15;27.50;99.90
18880;DHT22;9572;52.378;13.404;2023-06-22T10:26:41;27.50;99.90
18880;DHT22;9572;52.378;13.404;2023-06-22T10:29:08;27.50;99.90
18880;DHT22;9572;52.378;13.404;2023-06-22T10:31:35;27.40;99.90
18880;DHT22;9572;52.378;13.404;2023-06-22T10:34:02;27.40;99.90
18880;DHT22;9572;52.378;13.404;2023-06-22T10:36:31;27.40;99.90
18880;DHT22;9572;52.378;13.404;2023-06-22T10:38:58;27.40;99.90
18880;DHT22;9572;52.378;13.404;2023-06-22T10:41:27;27.50;99.90
18880;DHT22;9572;52.378;13.404;2023-06-22T10:43:55;27.50;99.90
18880;DHT22;9572;52.378;13.404;2023-06-22T10:46:24;27.50;99.90
18880;DHT22;9572;52.378;13.404;2023-06-22T10:48:51;27.70;99.90
18880;DHT22;9572;52.378;13.404;2023-06-22T10:51:20;28.10;99.90
18880;DHT22;9572;52.378;13.404;2023-06-22T10:53:48;28.50;99.90
18880;DHT22;9572;52.378;13.404;2023-06-22T10:56:16;28.90;99.90
18880;DHT22;9572;52.378;13.404;2023-06-22T10:58:45;29.30;99.90
18880;DHT22;9572;52.378;13.404;2023-06-22T11:01:14;29.70;99.90
18880;DHT22;9572;52.378;13.404;2023-06-22T11:03:41;30.00;99.90
18880;DHT22;9572;52.378;13.404;2023-06-22T11:06:08;30.40;99.90
18880;DHT22;9572;52.378;13.404;2023-06-22T11:08:35;30.70;99.90
18880;DHT22;9572;52.378;13.404;2023-06-22T11:11:04;30.80;99.90
18880;DHT22;9572;52.378;13.404;2023-06-22T11:13:31;30.90;99.90
18880;DHT22;9572;52.378;13.404;2023-06-22T11:15:57;31.00;99.90
18880;DHT22;9572;52.378;13.404;2023-06-22T11:18:24;31.10;99.90
18880;DHT22;9572;52.378;13.404;2023-06-22T11:20:51;31.10;99.90
18880;DHT22;9572;52.378;13.404;2023-06-22T11:23:18;31.20;99.90
18880;DHT22;9572;52.378;13.404;2023-06-22T11:25:45;31.20;99.90
18880;DHT22;9572;52.378;13.404;2023-06-22T11:28:14;31.30;99.90
18880;DHT22;9572;52.378;13.404;2023-06-22T11:30:41;31.40;99.90
18880;DHT22;9572;52.378;13.404;2023-06-22T11:33:07;31.50;99.90
18880;DHT22;9572;52.378;13.404;2023-06-22T11:35:34;31.70;99.90
18880;DHT22;9572;52.378;13.404;2023-06-22T11:38:01;31.70;99.90
18880;DHT22;9572;52.378;13.404;2023-06-22T11:40:29;31.80;99.90
18880;DHT22;9572;52.378;13.404;2023-06-22T11:42:56;31.80;99.90
18880;DHT22;9572;52.378;13.404;2023-06-22T11:45:24;31.70;99.90
18880;DHT22;9572;52.378;13.404;2023-06-22T11:47:51;31.60;99.90
18880;DHT22;9572;52.378;13.404;2023-06-22T11:50:18;31.70;99.90
18880;DHT22;9572;52.378;13.404;2023-06-22T11:52:45;31.80;99.90
18880;DHT22;9572;52.378;13.404;2023-06-22T11:55:12;31.90;99.90
18880;DHT22;9572;52.378;13.404;2023-06-22T11:57:53;32.00;99.90
18880;DHT22;9572;52.378;13.404;2023-06-22T12:00:20;32.00;99.90
18880;DHT22;9572;52.378;13.404;2023-06-22T12:02:50;32.10;99.90
18880;DHT22;9572;52.378;13.404;2023-06-22T12:05:19;32.20;99.90
18880;DHT22;9572;52.378;13.404;2023-06-22T12:07:46;32.00;99.90
18880;DHT22;9572;52.378;13.404;2023-06-22T12:10:13;31.60;99.90
18880;DHT22;9572;52.378;13.404;2023-06-22T12:12:40;31.30;99.90
18880;DHT22;9572;52.378;13.404;2023-06-22T12:15:08;31.20;99.90
18880;DHT22;9572;52.378;13.404;2023-06-22T12:17:35;31.20;99.90
18880;DHT22;9572;52.378;13.404;2023-06-22T12:20:05;31.10;99.90
18880;DHT22;9572;52.378;13.404;2023-06-22T12:22:33;31.30;99.90
18880;DHT22;9572;52.378;13.404;2023-06-22T12:25:00;31.40;99.90
18880;DHT22;9572;52.378;13.404;2023-06-22T12:27:27;31.20;99.90
18880;DHT22;9572;52.378;13.404;2023-06-22T12:29:56;31.20;99.90
18880;DHT22;9572;52.378;13.404;2023-06-22T12:32:23;31.20;99.90
18880;DHT22;9572;52.378;13.404;2023-06-22T12:34:52;31.20;99.90
18880;DHT22;9572;52.378;13.404;2023-06-22T12:37:21;31.30;99.90
18880;DHT22;9572;52.378;13.404;2023-06-22T12:39:48;31.30;99.90
18880;DHT22;9572;52.378;13.404;2023-06-22T12:42:15;31.20;99.90
18880;DHT22;9572;52.378;13.404;2023-06-22T12:44:42;31.30;99.90
18880;DHT22;9572;52.378;13.404;2023-06-22T12:47:10;31.30;99.90
18880;DHT22;9572;52.378;13.404;2023-06-22T12:49:37;31.40;99.90
18880;DHT22;9572;52.378;13.404;2023-06-22T12:52:08;31.40;99.90
18880;DHT22;9572;52.378;13.404;2023-06-22T12:54:37;31.50;99.90
18880;DHT22;9572;52.378;13.404;2023-06-22T12:57:04;31.40;99.90
18880;DHT22;9572;52.378;13.404;2023-06-22T12:59:31;31.40;99.90
18880;DHT22;9572;52.378;13.404;2023-06-22T13:01:58;31.40;99.90
18880;DHT22;9572;52.378;13.404;2023-06-22T13:04:25;31.10;99.90
18880;DHT22;9572;52.378;13.404;2023-06-22T13:06:52;31.20;99.90
18880;DHT22;9572;52.378;13.404;2023-06-22T13:09:19;31.20;99.90
18880;DHT22;9572;52.378;13.404;2023-06-22T13:11:48;31.30;99.90
18880;DHT22;9572;52.378;13.404;2023-06-22T13:14:14;31.40;99.90
18880;DHT22;9572;52.378;13.404;2023-06-22T13:16:42;31.50;99.90
18880;DHT22;9572;52.378;13.404;2023-06-22T13:19:09;31.40;99.90
18880;DHT22;9572;52.378;13.404;2023-06-22T13:21:36;31.30;99.90
18880;DHT22;9572;52.378;13.404;2023-06-22T13:24:04;31.30;99.90
18880;DHT22;9572;52.378;13.404;2023-06-22T13:26:31;31.10;99.90
18880;DHT22;9572;52.378;13.404;2023-06-22T13:29:00;31.20;99.90
18880;DHT22;9572;52.378;13.404;2023-06-22T13:31:27;31.10;99.90
18880;DHT22;9572;52.378;13.404;2023-06-22T13:33:54;31.00;99.90
18880;DHT22;9572;52.378;13.404;2023-06-22T13:36:21;30.90;99.90
18880;DHT22;9572;52.378;13.404;2023-06-22T13:38:48;30.70;99.90
18880;DHT22;9572;52.378;13.404;2023-06-22T13:41:15;30.80;99.90
18880;DHT22;9572;52.378;13.404;2023-06-22T13:43:42;30.80;99.90
18880;DHT22;9572;52.378;13.404;2023-06-22T13:46:11;31.00;99.90
18880;DHT22;9572;52.378;13.404;2023-06-22T13:48:38;31.00;99.90
18880;DHT22;9572;52.378;13.404;2023-06-22T13:51:04;31.00;99.90
18880;DHT22;9572;52.378;13.404;2023-06-22T13:53:31;31.10;99.90
18880;DHT22;9572;52.378;13.404;2023-06-22T13:55:58;31.20;99.90
18880;DHT22;9572;52.378;13.404;2023-06-22T13:58:25;31.20;99.90
18880;DHT22;9572;52.378;13.404;2023-06-22T14:00:52;31.30;99.90
18880;DHT22;9572;52.378;13.404;2023-06-22T14:03:21;31.40;99.90
18880;DHT22;9572;52.378;13.404;2023-06-22T14:05:47;31.50;99.90
18880;DHT22;9572;52.378;13.404;2023-06-22T14:08:14;31.50;99.90
18880;DHT22;9572;52.378;13.404;2023-06-22T14:10:41;31.50;99.90
18880;DHT22;9572;52.378;13.404;2023-06-22T14:13:08;31.40;99.90
18880;DHT22;9572;52.378;13.404;2023-06-22T14:15:35;31.50;99.90
18880;DHT22;9572;52.378;13.404;2023-06-22T14:18:02;31.40;99.90
18880;DHT22;9572;52.378;13.404;2023-06-22T14:20:30;31.10;99.90
18880;DHT22;9572;52.378;13.404;2023-06-22T14:22:57;31.10;99.90
18880;DHT22;9572;52.378;13.404;2023-06-22T14:25:24;31.10;99.90
18880;DHT22;9572;52.378;13.404;2023-06-22T14:27:51;31.10;99.90
18880;DHT22;9572;52.378;13.404;2023-06-22T14:30:18;31.10;99.90
18880;DHT22;9572;52.378;13.404;2023-06-22T14:32:45;31.20;99.90
18880;DHT22;9572;52.378;13.404;2023-06-22T14:35:12;31.30;99.90
18880;DHT22;9572;52.378;13.404;2023-06-22T14:37:41;31.30;99.90
18880;DHT22;9572;52.378;13.404;2023-06-22T14:40:08;31.40;99.90
18880;DHT22;9572;52.378;13.404;2023-06-22T14:42:36;31.50;99.90
18880;DHT22;9572;52.378;13.404;2023-06-22T14:45:03;31.50;99.90
18880;DHT22;9572;52.378;13.404;2023-06-22T14:47:30;31.50;99.90
18880;DHT22;9572;52.378;13.404;2023-06-22T14:49:57;31.40;99.90
18880;DHT22;9572;52.378;13.404;2023-06-22T14:52:25;31.40;99.90
18880;DHT22;9572;52.378;13.404;2023-06-22T14:54:55;31.30;99.90
18880;DHT22;9572;52.378;13.404;2023-06-22T14:57:21;31.30;99.90
18880;DHT22;9572;52.378;13.404;2023-06-22T14:59:48;31.30;99.90
18880;DHT22;9572;52.378;13.404;2023-06-22T15:02:16;31.30;99.90
18880;DHT22;9572;52.378;13.404;2023-06-22T15:04:43;31.30;99.90
18880;DHT22;9572;52.378;13.404;2023-06-22T15:07:10;31.20;99.90
18880;DHT22;9572;52.378;13.404;2023-06-22T15:09:37;31.10;99.90
18880;DHT22;9572;52.378;13.404;2023-06-22T15:12:09;31.10;99.90
18880;DHT22;9572;52.378;13.404;2023-06-22T15:14:38;31.00;99.90
18880;DHT22;9572;52.378;13.404;2023-06-22T15:17:05;31.00;99.90
18880;DHT22;9572;52.378;13.404;2023-06-22T15:19:34;30.90;99.90
18880;DHT22;9572;52.378;13.404;2023-06-22T15:22:02;30.80;99.90
18880;DHT22;9572;52.378;13.404;2023-06-22T15:24:29;30.80;99.90
18880;DHT22;9572;52.378;13.404;2023-06-22T15:26:56;30.80;99.90
18880;DHT22;9572;52.378;13.404;2023-06-22T15:29:24;30.80;99.90
18880;DHT22;9572;52.378;13.404;2023-06-22T15:31:52;30.80;99.90
18880;DHT22;9572;52.378;13.404;2023-06-22T15:34:19;30.70;99.90